Renmark, Australia
Current Conditions -  °F | °C
As of 5:00 AM on Saturday 22 Nov 2014 (Local Time) from YMIA Reporting Station
Clear Clear  
Wind Chill: 61°   Ceiling: Unl
Heat Index: 61°   Visibility: 6mi
Dew Point: 43°   Wind: 6mph
Humidity: 52%   Direction: 60°ENE
Pressure: 29.8"   Gusts: NA
Location:  34.17°S, 140.75°E
Report Text: YMIA 211900Z AUTO 06005KT 9999 // NCD 16/06 Q1009
Loading
Personal Weather Stations






























Interactive Weather Map New forecast layout! Learn more

10-Day Weather Forecast

Advertisements
Track Severe Weather on mobile